• Join FlightAware (Why Join?)
  • Login
  • US Flag 
02:45AM EDT


 

Airport Tracker/Info


-or-


 

Live Flight TrackerFlight Track Log ✈ EJA982 ✈ 23-Jun-2013 ✈ KMRY - KSMO

Flight Track Log - Related Links

Times and Time Zones

All times are in EDT time to prevent confusion due to time zone crossing. See the EJA982 flight status page for this flight to view local times or setup timezone preferences in your user account.

Time Position Orientation Groundspeed Altitude Reporting Facility
EDT Latitude Longitude Course Direction KTS MPH feet Rate Location/Type
05:36PM 36.6500 -121.9000 131° Southeast 227 261 5,700  Level Northern Cal TRACON
05:38PM 36.6167 -122.0167 250° West 301 346 8,700 1,740 Climbing Northern Cal TRACON
05:39PM 36.5378 -121.9219 136° Southeast 315 362 11,700 2,460 Climbing Oakland Center
05:40PM 36.4581 -121.8000 129° Southeast 357 411 14,700 2,580 Climbing Oakland Center
05:41PM 36.1759 -121.3060 131° Southeast  Level FlightAware Approximate
05:41PM 36.3883 -121.6906 128° Southeast 383 441 17,000  Level Oakland Center
05:42PM 36.3119 -121.5806 131° Southeast 404 465 18,900 1,560 Climbing Oakland Center
05:43PM 36.2303 -121.4636 131° Southeast 428 493 20,300 1,500 Climbing Oakland Center
05:44PM 36.1478 -121.3450 131° Southeast 444 511 22,000 1,560 Climbing Oakland Center
05:45PM 36.0633 -121.2239 131° Southeast 455 524 23,500 1,440 Climbing Oakland Center
05:46PM 35.9769 -121.1028 131° Southeast 463 533 25,000 720 Climbing Oakland Center
05:47PM 35.8869 -120.9736 131° Southeast 479 551 25,000 -1,020 Level Oakland Center
05:48PM 35.7736 -120.8139 131° Southeast 505 581 23,000 -1,860 Descending Oakland Center
05:49PM 35.6797 -120.6822 131° Southeast 511 588 21,200 -1,020 Descending Oakland Center
05:50PM 35.5906 -120.5558 131° Southeast 497 572 21,000 -120 Descending Oakland Center
05:52PM 35.5028 -120.4331 131° Southeast 482 555 21,000  Level Oakland Center
05:52PM 35.4658 -120.3828 132° Southeast 481 554 21,000  Level Los Angeles Center
05:53PM 35.3614 -120.2342 131° Southeast 481 554 21,000  Level Los Angeles Center
05:54PM 35.2661 -120.1042 132° Southeast 479 551 21,000  Level Los Angeles Center
05:55PM 35.1608 -119.9572 131° Southeast 478 550 21,000  Level Los Angeles Center
05:56PM 35.0714 -119.8369 132° Southeast 479 551 21,000  Level Los Angeles Center
05:57PM 34.9819 -119.7153 132° Southeast 480 552 21,000  Level Los Angeles Center
05:59PM 34.8919 -119.5947 132° Southeast 481 554 21,000 -660 Level Los Angeles Center
06:00PM 34.7861 -119.4492 131° Southeast 481 554 19,700 -1,800 Descending Los Angeles Center
06:01PM 34.7011 -119.3353 132° Southeast 457 526 17,300 -2,280 Descending Los Angeles Center
06:02PM 34.6208 -119.2281 132° Southeast 434 499 15,000 -2,040 Descending Los Angeles Center
06:03PM 34.5500 -119.1378 134° Southeast 390 449 13,100 -1,920 Descending Los Angeles Center
06:04PM 34.4728 -119.0347 132° Southeast 338 389 11,000 -1,440 Descending Los Angeles Center
06:05PM 34.4300 -118.9714 129° Southeast 306 352 10,200 -1,140 Descending Los Angeles Center
06:06PM 34.3817 -118.8592 118° Southeast 310 357 8,700 -1,080 Descending Los Angeles Center
06:07PM 34.3442 -118.7683 117° Southeast 300 345 8,000 -360 Descending Los Angeles Center
06:08PM 34.3047 -118.6783 118° Southeast 302 348 8,000 -480 Level Los Angeles Center
06:09PM 34.2653 -118.5886 118° Southeast 303 349 7,000 -840 Descending Los Angeles Center
06:10PM 34.2158 -118.4697 117° Southeast 283 326 6,200 -960 Descending Los Angeles Center
06:11PM 34.1883 -118.3781 110° East 288 331 5,100 -600 Descending Los Angeles Center
06:12PM 34.1603 -118.3061 115° Southeast 258 297 5,000 -600 Descending Los Angeles Center
06:13PM 34.1106 -118.3272 199° South 205 236 3,900 -1,260 Descending Los Angeles Center
06:14PM 34.0772 -118.3728 229° Southwest 187 215 2,500 -1,140 Descending Los Angeles Center
06:15PM 34.0528 -118.4092 231° Southwest 154 177 1,600 -1,080 Descending Los Angeles Center
06:16PM 34.0214 -118.4447 223° Southwest 135 155 300 -1,260 Descending Los Angeles Center
06:18PM 34.0158 -118.4513 180° South  Level Estimated
06:25PM 34.0158 -118.4513 180° South  Level Estimated